Sutton-in-Ashfield, United Kingdom
Current Conditions -  °F | °C
As of 10:50 PM on Tuesday 25 Nov 2014 (Local Time) from EGNX Reporting Station
Light Rain Light Rain  
Wind Chill: 39°   Ceiling: 2200
Heat Index: 43°   Visibility: 5mi
Dew Point: 41°   Wind: 7mph
Humidity: 93%   Direction: 20°NNE
Pressure: 30.06"   Gusts: NA
Location:  53.11°N, 1.25°W
Report Text: EGNX 252250Z 02006KT 8000 -RA FEW009 BKN022 06/05 Q1018
Loading
Personal Weather Stations






























Interactive Weather Map New forecast layout! Learn more

10-Day Weather Forecast

Advertisements
Track Severe Weather on mobile